Portada
METAR-TAF:

METAR-TAF

Aeroports :

Aeroport Internacional de Tòquio

Tòquio Haneda, Japó

latitud: 35-33N, longitud: 139-47E, altitud: 5 m

Observació

L'informe es va fer fa 27 minuts, a les 00:00 UTC
Vent 11 kt del Nord
Temperatura 22°C
Humitat 73%
Pressió 1022 hPa
Visibilitat 10 km o més
Escasses núvols a una alçada de 2000 ft
Cel ennuvolat a una alçada de 9000 ft

METAR: RJTT 210000Z 01011KT 9999 FEW020 BKN090 22/17 Q1022 NOSIG RMK 1CU020 7AC090 A3018

Hora: 09:27 (00:27 UTC)

Pronòstic

L'informe es va fer fa 1 hora i 22 minuts, a les 23:05 UTC
Pronòstic vàlid del 21 a les 00 UTC al 22 a les 06 UTC
Vent 12 kt del Nord/Nord-Est
Visibilitat 10 km o més
Escasses núvols a una alçada de 2000 ft
Núvols disperses a una alçada de 6000 ft

TAF: RJTT 202305Z 2100/2206 03012KT 9999 FEW020 SCT060

Observacions i pronòstics meteorològics de més de 4000 aeroports (METAR i TAF).

Les estacions disponibles són els punts grocs i vermells al mapa.

Posi el ratolí al punt desitjat per veure el nom de l'estació.

Feu clic per veure les observacions i els pronòstics meteorològics.

Per canviar el mapa: feu clic els botons verds amb una creu de color negre per apropar; al botó verd amb un guió per allunyar la imatge; o en les fletxes verdes per a mapes adjacents.


METAR-TAF: